Time;durP1;ratioP1;P1;durP2;ratioP2;P2;SDS_P1;SDS_P2;PMS_P1;PMS_P2;Temp;Humidity;BMP_temperature;BMP_pressure;BME280_temperature;BME280_humidity;BME280_pressure;Samples;Min_cycle;Max_cycle;Signal;HPM_P1;HPM_P2
2023/04/23 00:00:12;;;;;;;10.57;6.60;;;;;;;;;;7372181;19;20341;-72
2023/04/23 00:02:37;;;;;;;9.13;6.50;;;;;;;;;;7371689;19;20473;-72
2023/04/23 00:05:05;;;;;;;10.25;6.88;;;;;;;;;;7371782;19;20013;-72
2023/04/23 00:07:32;;;;;;;12.48;6.90;;;;;;;;;;7390965;19;20039;-73
2023/04/23 00:09:59;;;;;;;10.63;6.50;;;;;;;;;;7372066;19;20035;-73
2023/04/23 00:12:25;;;;;;;11.85;7.45;;;;;;;;;;7370944;19;20006;-72
2023/04/23 00:14:51;;;;;;;11.30;7.22;;;;;;;;;;7371520;19;20007;-72
2023/04/23 00:17:16;;;;;;;10.65;6.68;;;;;;;;;;7370959;19;20006;-72
2023/04/23 00:19:41;;;;;;;12.73;7.30;;;;;;;;;;7372262;19;20357;-72
2023/04/23 00:22:07;;;;;;;11.52;7.00;;;;;;;;;;7396084;19;20090;-72
2023/04/23 00:24:35;;;;;;;11.57;6.50;;;;;;;;;;7370498;19;20021;-72
2023/04/23 00:27:00;;;;;;;10.10;7.18;;;;;;;;;;7369796;19;20010;-72
2023/04/23 00:29:26;;;;;;;11.02;7.30;;;;;;;;;;7370933;19;20482;-72
2023/04/23 00:31:51;;;;;;;9.52;7.22;;;;;;;;;;7371848;19;20314;-71
2023/04/23 00:34:16;;;;;;;13.45;7.72;;;;;;;;;;7392817;19;20023;-71
2023/04/23 00:36:42;;;;;;;13.85;8.00;;;;;;;;;;7367291;19;20016;-71
2023/04/23 00:39:08;;;;;;;13.85;8.20;;;;;;;;;;7370467;19;20010;-71
2023/04/23 00:41:34;;;;;;;12.00;8.30;;;;;;;;;;7370321;19;20012;-71
2023/04/23 00:44:01;;;;;;;11.10;7.75;;;;;;;;;;7372354;19;20098;-72
2023/04/23 00:46:27;;;;;;;15.27;8.07;;;;;;;;;;7389521;19;20006;-71
2023/04/23 00:48:53;;;;;;;12.30;8.23;;;;;;;;;;7372095;19;20039;-72
2023/04/23 00:51:20;;;;;;;13.90;8.23;;;;;;;;;;7368951;19;20002;-71
2023/04/23 00:53:46;;;;;;;13.07;9.13;;;;;;;;;;7371971;19;20015;-72
2023/04/23 00:56:12;;;;;;;14.95;8.75;;;;;;;;;;7376093;19;20094;-72
2023/04/23 00:58:37;;;;;;;14.23;9.10;;;;;;;;;;7383419;19;20013;-72
2023/04/23 01:01:03;;;;;;;15.38;9.27;;;;;;;;;;7394369;19;20073;-72
2023/04/23 01:03:30;;;;;;;17.25;9.57;;;;;;;;;;7369163;19;20345;-72
2023/04/23 01:05:57;;;;;;;18.05;9.82;;;;;;;;;;7370080;19;20002;-72
2023/04/23 01:08:23;;;;;;;12.38;9.40;;;;;;;;;;7371788;19;20014;-71
2023/04/23 01:10:49;;;;;;;16.08;10.00;;;;;;;;;;7372202;19;20002;-71
2023/04/23 01:13:15;;;;;;;14.45;9.50;;;;;;;;;;7393917;19;19995;-71
2023/04/23 01:15:44;;;;;;;16.02;10.13;;;;;;;;;;7368906;19;20015;-72
2023/04/23 01:18:10;;;;;;;13.52;9.85;;;;;;;;;;7368210;19;20017;-71
2023/04/23 01:20:36;;;;;;;14.88;10.93;;;;;;;;;;7369997;19;20003;-71
2023/04/23 01:23:05;;;;;;;15.18;10.50;;;;;;;;;;7369425;19;20017;-71
2023/04/23 01:25:30;;;;;;;16.08;11.23;;;;;;;;;;7391397;19;20023;-71
2023/04/23 01:27:57;;;;;;;15.10;11.23;;;;;;;;;;7370687;19;20015;-71
2023/04/23 01:30:25;;;;;;;15.93;10.25;;;;;;;;;;7372563;19;20006;-71
2023/04/23 01:32:52;;;;;;;15.27;10.77;;;;;;;;;;7371155;19;20035;-71
2023/04/23 01:35:17;;;;;;;17.30;11.13;;;;;;;;;;7371394;19;20017;-71
2023/04/23 01:37:43;;;;;;;13.95;10.32;;;;;;;;;;7366854;19;19995;-71
2023/04/23 01:40:09;;;;;;;15.13;10.57;;;;;;;;;;7390745;19;20058;-71
2023/04/23 01:42:35;;;;;;;14.90;10.43;;;;;;;;;;7367521;19;20002;-71
2023/04/23 01:45:02;;;;;;;17.42;10.95;;;;;;;;;;7368466;19;20002;-71
2023/04/23 01:47:27;;;;;;;16.45;10.27;;;;;;;;;;7366018;19;20007;-72
2023/04/23 01:49:53;;;;;;;14.77;10.43;;;;;;;;;;7368665;19;20486;-72
2023/04/23 01:52:19;;;;;;;15.68;10.63;;;;;;;;;;7388707;19;20054;-72
2023/04/23 01:54:44;;;;;;;16.10;10.88;;;;;;;;;;7368823;19;20276;-72
2023/04/23 01:57:10;;;;;;;17.55;11.13;;;;;;;;;;7369579;19;20002;-72
2023/04/23 01:59:36;;;;;;;17.98;10.90;;;;;;;;;;7367224;19;20031;-72
2023/04/23 02:02:01;;;;;;;18.80;10.90;;;;;;;;;;7367885;19;20006;-72
2023/04/23 02:04:28;;;;;;;14.75;10.32;;;;;;;;;;7389238;19;20019;-72
2023/04/23 02:06:53;;;;;;;17.38;11.30;;;;;;;;;;7368246;19;20473;-72
2023/04/23 02:09:20;;;;;;;14.85;10.50;;;;;;;;;;7368785;19;20056;-72
2023/04/23 02:11:45;;;;;;;16.88;10.48;;;;;;;;;;7368257;19;20002;-72
2023/04/23 02:14:10;;;;;;;15.00;10.85;;;;;;;;;;7368880;19;20396;-72
2023/04/23 02:16:36;;;;;;;15.30;10.63;;;;;;;;;;7373766;19;20017;-72
2023/04/23 02:19:01;;;;;;;14.20;10.48;;;;;;;;;;7389760;19;20010;-72
2023/04/23 02:21:27;;;;;;;14.38;9.75;;;;;;;;;;7368248;19;20112;-72
2023/04/23 02:23:53;;;;;;;16.00;10.32;;;;;;;;;;7367317;19;20018;-72
2023/04/23 02:26:18;;;;;;;14.50;10.15;;;;;;;;;;7365089;19;20026;-72
2023/04/23 02:28:44;;;;;;;15.20;9.50;;;;;;;;;;7367708;19;19999;-72
2023/04/23 02:31:10;;;;;;;15.90;9.75;;;;;;;;;;7388867;19;20381;-72
2023/04/23 02:33:35;;;;;;;15.55;10.05;;;;;;;;;;7366610;19;20015;-72
2023/04/23 02:36:00;;;;;;;14.75;9.88;;;;;;;;;;7365964;19;20029;-72
2023/04/23 02:38:26;;;;;;;12.70;9.13;;;;;;;;;;7366155;19;20011;-72
2023/04/23 02:40:51;;;;;;;15.77;9.52;;;;;;;;;;7366466;19;20330;-72
2023/04/23 02:43:17;;;;;;;15.75;10.32;;;;;;;;;;7388872;19;20507;-71
2023/04/23 02:45:43;;;;;;;14.50;8.82;;;;;;;;;;7364874;19;20013;-71
2023/04/23 02:48:09;;;;;;;13.55;9.20;;;;;;;;;;7364907;19;20018;-72
2023/04/23 02:50:34;;;;;;;11.73;8.43;;;;;;;;;;7366160;19;20003;-71
2023/04/23 02:53:00;;;;;;;13.77;8.88;;;;;;;;;;7367418;19;20434;-71
2023/04/23 02:55:28;;;;;;;14.90;9.02;;;;;;;;;;7388181;19;20006;-71
2023/04/23 02:57:53;;;;;;;12.10;8.63;;;;;;;;;;7363807;19;20011;-71
2023/04/23 03:00:19;;;;;;;13.57;9.95;;;;;;;;;;7370651;19;20477;-73
2023/04/23 03:02:44;;;;;;;11.75;8.35;;;;;;;;;;7372728;19;20463;-71
2023/04/23 03:05:10;;;;;;;13.48;8.98;;;;;;;;;;7372796;19;20026;-72
2023/04/23 03:07:36;;;;;;;14.77;8.88;;;;;;;;;;7382580;19;20011;-72
2023/04/23 03:10:01;;;;;;;14.77;9.82;;;;;;;;;;7392098;19;20008;-72
2023/04/23 03:12:26;;;;;;;11.45;8.48;;;;;;;;;;7373775;19;20027;-72
2023/04/23 03:14:51;;;;;;;12.57;9.43;;;;;;;;;;7373409;19;20019;-72
2023/04/23 03:17:17;;;;;;;12.57;9.48;;;;;;;;;;7371359;19;20416;-72
2023/04/23 03:19:42;;;;;;;15.63;9.35;;;;;;;;;;7372836;19;20365;-71
2023/04/23 03:22:07;;;;;;;15.02;9.60;;;;;;;;;;7395259;19;20002;-72
2023/04/23 03:24:33;;;;;;;14.77;8.57;;;;;;;;;;7371085;19;20006;-72
2023/04/23 03:26:59;;;;;;;13.25;9.25;;;;;;;;;;7376695;19;20365;-72
2023/04/23 03:29:25;;;;;;;13.63;8.90;;;;;;;;;;7376498;19;20012;-72
2023/04/23 03:31:50;;;;;;;13.13;8.70;;;;;;;;;;7386814;19;20014;-72
2023/04/23 03:34:15;;;;;;;12.48;8.70;;;;;;;;;;7419623;19;20019;-72
2023/04/23 03:36:43;;;;;;;12.10;9.20;;;;;;;;;;7395807;19;20011;-72
2023/04/23 03:39:09;;;;;;;12.05;8.82;;;;;;;;;;7372498;19;20002;-72
2023/04/23 03:41:34;;;;;;;11.43;8.35;;;;;;;;;;7374078;19;20024;-71
2023/04/23 03:44:00;;;;;;;11.88;8.23;;;;;;;;;;7375602;19;20014;-71
2023/04/23 03:46:25;;;;;;;12.23;8.02;;;;;;;;;;7395759;19;20003;-71
2023/04/23 03:48:50;;;;;;;11.98;8.20;;;;;;;;;;7375179;19;20112;-72
2023/04/23 03:51:16;;;;;;;12.75;8.20;;;;;;;;;;7376830;19;20042;-72
2023/04/23 03:53:41;;;;;;;11.77;8.63;;;;;;;;;;7373281;19;20003;-72
2023/04/23 03:56:06;;;;;;;12.52;8.48;;;;;;;;;;7371779;19;20003;-72
2023/04/23 03:58:32;;;;;;;12.13;8.77;;;;;;;;;;7393345;19;20513;-72
2023/04/23 04:00:57;;;;;;;14.98;9.40;;;;;;;;;;7371811;19;20512;-72
2023/04/23 04:03:22;;;;;;;13.38;8.90;;;;;;;;;;7371626;19;20006;-72
2023/04/23 04:05:48;;;;;;;13.07;9.02;;;;;;;;;;7371694;19;20007;-72
2023/04/23 04:08:13;;;;;;;12.43;9.38;;;;;;;;;;7370162;19;20002;-72
2023/04/23 04:10:39;;;;;;;13.40;8.88;;;;;;;;;;7372381;19;19998;-73
2023/04/23 04:13:05;;;;;;;12.98;8.57;;;;;;;;;;7423204;19;20002;-72
2023/04/23 04:15:31;;;;;;;13.18;8.98;;;;;;;;;;7400400;19;20097;-72
2023/04/23 04:17:57;;;;;;;15.25;9.43;;;;;;;;;;7394850;19;20059;-73
2023/04/23 04:20:22;;;;;;;13.77;9.32;;;;;;;;;;7390867;19;19998;-72
2023/04/23 04:22:48;;;;;;;11.88;8.60;;;;;;;;;;7373372;19;19999;-73
2023/04/23 04:25:13;;;;;;;13.48;8.95;;;;;;;;;;7393441;19;19998;-72
2023/04/23 04:27:40;;;;;;;13.80;9.23;;;;;;;;;;7370173;19;20011;-73
2023/04/23 04:30:06;;;;;;;11.50;8.82;;;;;;;;;;7372261;19;20098;-73
2023/04/23 04:32:31;;;;;;;13.15;8.68;;;;;;;;;;7371557;19;20402;-72
2023/04/23 04:34:57;;;;;;;12.25;8.93;;;;;;;;;;7371609;19;20006;-73
2023/04/23 04:37:22;;;;;;;11.88;8.68;;;;;;;;;;7391955;19;20020;-72
2023/04/23 04:39:48;;;;;;;12.00;8.23;;;;;;;;;;7376692;19;20030;-72
2023/04/23 04:42:14;;;;;;;12.27;8.50;;;;;;;;;;7377518;19;20016;-72
2023/04/23 04:44:40;;;;;;;12.60;8.90;;;;;;;;;;7370327;19;20484;-72
2023/04/23 04:47:08;;;;;;;13.63;9.10;;;;;;;;;;7368388;19;20010;-73
2023/04/23 04:49:33;;;;;;;13.00;9.25;;;;;;;;;;7393256;19;20031;-72
2023/04/23 04:51:59;;;;;;;10.95;8.25;;;;;;;;;;7370349;19;20002;-72
2023/04/23 04:54:24;;;;;;;12.68;8.85;;;;;;;;;;7371534;19;20007;-72
2023/04/23 04:56:50;;;;;;;14.60;9.40;;;;;;;;;;7369553;19;20083;-72
2023/04/23 04:59:15;;;;;;;13.57;9.05;;;;;;;;;;7370336;19;20409;-72
2023/04/23 05:01:41;;;;;;;13.82;9.43;;;;;;;;;;7369617;19;20014;-73
2023/04/23 05:04:06;;;;;;;14.10;9.07;;;;;;;;;;7392050;19;20014;-72
2023/04/23 05:06:32;;;;;;;14.82;8.98;;;;;;;;;;7367941;19;20003;-73
2023/04/23 05:08:57;;;;;;;13.95;8.95;;;;;;;;;;7370007;19;20010;-73
2023/04/23 05:11:22;;;;;;;13.43;9.35;;;;;;;;;;7369361;19;20010;-72
2023/04/23 05:13:48;;;;;;;14.07;9.43;;;;;;;;;;7379360;19;19998;-73
2023/04/23 05:16:13;;;;;;;14.43;9.20;;;;;;;;;;7393631;19;20010;-73
2023/04/23 05:18:40;;;;;;;12.70;8.75;;;;;;;;;;7369370;19;20017;-71
2023/04/23 05:21:05;;;;;;;12.52;8.88;;;;;;;;;;7368735;19;20013;-72
2023/04/23 05:23:31;;;;;;;13.85;9.25;;;;;;;;;;7369367;19;20022;-71
2023/04/23 05:25:57;;;;;;;12.05;9.18;;;;;;;;;;7367806;19;20166;-72
2023/04/23 05:28:23;;;;;;;10.43;8.00;;;;;;;;;;7390450;19;20025;-71
2023/04/23 05:30:49;;;;;;;12.35;8.95;;;;;;;;;;7369013;19;20010;-72
2023/04/23 05:33:15;;;;;;;12.52;8.55;;;;;;;;;;7369798;19;20003;-73
2023/04/23 05:35:40;;;;;;;12.65;8.65;;;;;;;;;;7368966;19;20014;-71
2023/04/23 05:38:06;;;;;;;12.57;7.97;;;;;;;;;;7369154;19;20090;-72
2023/04/23 05:40:31;;;;;;;10.45;7.18;;;;;;;;;;7390777;19;20027;-72
2023/04/23 05:43:00;;;;;;;12.02;7.72;;;;;;;;;;7369939;19;19994;-72
2023/04/23 05:45:26;;;;;;;13.05;7.18;;;;;;;;;;7368259;19;20074;-72
2023/04/23 05:47:51;;;;;;;10.85;7.28;;;;;;;;;;7369018;19;20107;-72
2023/04/23 05:50:17;;;;;;;9.15;6.50;;;;;;;;;;7369666;19;20393;-72
2023/04/23 05:52:42;;;;;;;10.77;6.72;;;;;;;;;;7369675;19;20138;-72
2023/04/23 05:55:11;;;;;;;10.75;7.38;;;;;;;;;;7392666;19;20496;-72
2023/04/23 05:57:37;;;;;;;11.77;6.85;;;;;;;;;;7372048;19;20100;-72
2023/04/23 06:00:04;;;;;;;9.65;6.25;;;;;;;;;;7369425;19;20036;-72
2023/04/23 06:02:30;;;;;;;10.82;5.95;;;;;;;;;;7369052;19;20010;-72
2023/04/23 06:04:55;;;;;;;7.00;4.90;;;;;;;;;;7375081;19;20388;-72
2023/04/23 06:07:20;;;;;;;8.10;5.03;;;;;;;;;;7396671;19;20006;-72
2023/04/23 06:09:46;;;;;;;7.88;5.00;;;;;;;;;;7370905;19;20011;-73
2023/04/23 06:12:11;;;;;;;8.30;4.28;;;;;;;;;;7368841;19;20006;-72
2023/04/23 06:14:37;;;;;;;7.47;4.50;;;;;;;;;;7368173;19;20018;-72
2023/04/23 06:17:02;;;;;;;7.68;4.28;;;;;;;;;;7367646;19;20022;-72
2023/04/23 06:19:27;;;;;;;8.38;4.15;;;;;;;;;;7390883;19;20015;-72
2023/04/23 06:21:53;;;;;;;6.90;4.20;;;;;;;;;;7368024;19;20010;-72
2023/04/23 06:24:18;;;;;;;8.82;4.30;;;;;;;;;;7363151;19;20102;-72
2023/04/23 06:26:43;;;;;;;6.72;4.25;;;;;;;;;;7362506;19;20011;-72
2023/04/23 06:29:09;;;;;;;6.78;4.25;;;;;;;;;;7367460;19;20003;-72
2023/04/23 06:31:35;;;;;;;5.72;3.90;;;;;;;;;;7389608;19;20031;-72
2023/04/23 06:34:00;;;;;;;6.22;3.65;;;;;;;;;;7374161;19;19999;-73
2023/04/23 06:36:26;;;;;;;7.60;4.32;;;;;;;;;;7378930;19;21918;-72
2023/04/23 06:38:51;;;;;;;6.28;3.88;;;;;;;;;;7379451;19;20002;-72
2023/04/23 06:41:16;;;;;;;6.15;3.80;;;;;;;;;;7375883;19;20014;-72
2023/04/23 06:43:42;;;;;;;7.78;4.32;;;;;;;;;;7375424;19;19995;-73
2023/04/23 06:46:07;;;;;;;6.13;4.00;;;;;;;;;;7392766;19;20010;-73
2023/04/23 06:48:33;;;;;;;5.55;3.97;;;;;;;;;;7373604;19;20002;-73
2023/04/23 06:50:58;;;;;;;7.57;3.60;;;;;;;;;;7375237;19;20010;-74
2023/04/23 06:53:23;;;;;;;6.55;4.00;;;;;;;;;;7375412;19;20002;-73
2023/04/23 06:55:50;;;;;;;6.40;3.80;;;;;;;;;;7377554;19;20481;-73
2023/04/23 06:58:15;;;;;;;7.28;4.00;;;;;;;;;;7393568;19;20023;-72
2023/04/23 07:00:41;;;;;;;6.18;4.10;;;;;;;;;;7373256;19;20700;-72
2023/04/23 07:03:06;;;;;;;7.07;4.82;;;;;;;;;;7374906;19;20491;-73
2023/04/23 07:05:31;;;;;;;7.00;4.90;;;;;;;;;;7374167;19;20421;-72
2023/04/23 07:07:57;;;;;;;11.00;4.97;;;;;;;;;;7370206;19;20524;-72
2023/04/23 07:10:22;;;;;;;6.93;4.90;;;;;;;;;;7396750;19;20027;-71
2023/04/23 07:12:49;;;;;;;6.88;4.68;;;;;;;;;;7370747;19;20010;-71
2023/04/23 07:15:14;;;;;;;6.32;4.55;;;;;;;;;;7373935;19;20014;-72
2023/04/23 07:17:40;;;;;;;9.20;4.93;;;;;;;;;;7375399;19;20043;-71
2023/04/23 07:20:07;;;;;;;7.28;5.07;;;;;;;;;;7374386;19;20717;-71
2023/04/23 07:22:33;;;;;;;7.20;5.60;;;;;;;;;;7396115;19;20055;-71
2023/04/23 07:24:59;;;;;;;7.80;5.43;;;;;;;;;;7373560;19;20015;-71
2023/04/23 07:27:24;;;;;;;7.10;4.80;;;;;;;;;;7372776;19;20014;-71
2023/04/23 07:29:50;;;;;;;7.07;4.63;;;;;;;;;;7373870;19;20010;-69
2023/04/23 07:32:15;;;;;;;7.50;5.05;;;;;;;;;;7375621;19;20014;-67
2023/04/23 07:34:41;;;;;;;7.40;4.80;;;;;;;;;;7377701;19;20050;-70
2023/04/23 07:37:06;;;;;;;7.53;4.68;;;;;;;;;;7394942;19;20390;-68
2023/04/23 07:39:32;;;;;;;6.90;4.32;;;;;;;;;;7371983;19;20067;-63
2023/04/23 07:41:58;;;;;;;8.40;5.30;;;;;;;;;;7372894;19;20320;-63
2023/04/23 07:44:23;;;;;;;7.47;4.90;;;;;;;;;;7372989;19;20009;-63
2023/04/23 07:46:49;;;;;;;7.65;4.75;;;;;;;;;;7373796;19;20013;-62
2023/04/23 07:49:15;;;;;;;8.07;4.57;;;;;;;;;;7395878;19;20005;-65
2023/04/23 07:51:40;;;;;;;6.78;4.20;;;;;;;;;;7378095;19;20070;-64
2023/04/23 07:54:07;;;;;;;7.45;4.00;;;;;;;;;;7380356;19;20008;-61
2023/04/23 07:56:32;;;;;;;7.75;4.15;;;;;;;;;;7378530;19;20035;-61
2023/04/23 07:58:58;;;;;;;9.60;4.15;;;;;;;;;;7384179;19;20387;-63
2023/04/23 08:01:24;;;;;;;5.70;4.07;;;;;;;;;;7404173;19;20015;-62
2023/04/23 08:03:49;;;;;;;7.20;4.35;;;;;;;;;;7374131;19;20030;-64
2023/04/23 08:06:17;;;;;;;7.38;4.20;;;;;;;;;;7374877;19;20018;-73
2023/04/23 08:08:42;;;;;;;6.28;3.88;;;;;;;;;;7378624;19;20044;-74
2023/04/23 08:11:07;;;;;;;7.15;4.15;;;;;;;;;;7381380;19;20655;-73
2023/04/23 08:13:33;;;;;;;6.25;4.10;;;;;;;;;;7402100;19;20008;-75
2023/04/23 08:15:58;;;;;;;9.10;4.53;;;;;;;;;;7379536;19;20074;-74
2023/04/23 08:18:24;;;;;;;6.88;4.20;;;;;;;;;;7379572;19;20364;-75
2023/04/23 08:20:49;;;;;;;5.75;3.80;;;;;;;;;;7379046;19;20020;-74
2023/04/23 08:23:15;;;;;;;5.15;3.60;;;;;;;;;;7377523;19;20483;-74
2023/04/23 08:25:40;;;;;;;7.05;4.30;;;;;;;;;;7378275;19;20017;-75
2023/04/23 08:28:05;;;;;;;6.43;3.67;;;;;;;;;;7398189;19;20001;-74
2023/04/23 08:30:31;;;;;;;5.80;3.70;;;;;;;;;;7377763;19;20021;-74
2023/04/23 08:32:56;;;;;;;7.05;3.58;;;;;;;;;;7377937;19;20017;-73
2023/04/23 08:35:22;;;;;;;6.05;3.67;;;;;;;;;;7377610;19;20022;-73
2023/04/23 08:37:48;;;;;;;5.50;3.40;;;;;;;;;;7375400;19;20023;-74
2023/04/23 08:40:13;;;;;;;6.35;3.40;;;;;;;;;;7399305;19;19998;-74
2023/04/23 08:43:08;;;;;;;5.90;3.50;;;;;;;;;;7374069;19;20400;-75
2023/04/23 08:45:40;;;;;;;5.72;2.90;;;;;;;;;;7371861;19;20011;-74
2023/04/23 08:48:08;;;;;;;7.07;3.05;;;;;;;;;;7372121;19;20445;-74
2023/04/23 08:50:36;;;;;;;4.40;2.70;;;;;;;;;;7372644;19;20006;-73
2023/04/23 08:53:03;;;;;;;5.20;2.80;;;;;;;;;;7371295;19;20692;-73
2023/04/23 08:55:29;;;;;;;5.28;2.72;;;;;;;;;;7392977;19;20351;-73
2023/04/23 08:57:57;;;;;;;4.82;2.75;;;;;;;;;;7361371;19;20018;-73
2023/04/23 09:00:22;;;;;;;6.35;3.17;;;;;;;;;;7369196;19;20074;-73
2023/04/23 09:02:48;;;;;;;5.95;2.92;;;;;;;;;;7368209;19;20423;-75
2023/04/23 09:05:14;;;;;;;4.57;2.80;;;;;;;;;;7368585;19;20056;-73
2023/04/23 09:07:40;;;;;;;5.25;2.85;;;;;;;;;;7366334;19;20018;-75
2023/04/23 09:10:07;;;;;;;5.90;3.10;;;;;;;;;;7390670;19;20373;-74
2023/04/23 09:12:37;;;;;;;7.20;2.83;;;;;;;;;;7366561;19;20036;-73
2023/04/23 09:15:09;;;;;;;6.03;2.80;;;;;;;;;;7369682;19;20601;-75
2023/04/23 09:17:37;;;;;;;5.28;2.97;;;;;;;;;;7367133;19;20540;-73
2023/04/23 09:20:02;;;;;;;5.07;2.88;;;;;;;;;;7368571;19;20019;-75
2023/04/23 09:22:47;;;;;;;4.82;2.30;;;;;;;;;;7389207;19;20010;-73
2023/04/23 09:25:18;;;;;;;5.32;2.95;;;;;;;;;;7368252;19;20010;-72
2023/04/23 09:27:44;;;;;;;4.65;2.55;;;;;;;;;;7364402;19;20528;-72
2023/04/23 09:30:11;;;;;;;3.60;2.38;;;;;;;;;;7367417;19;20426;-73
2023/04/23 09:32:38;;;;;;;5.68;2.20;;;;;;;;;;7366410;19;20070;-74
2023/04/23 09:35:09;;;;;;;4.65;2.58;;;;;;;;;;7368907;19;20025;-79
2023/04/23 09:37:35;;;;;;;4.20;2.38;;;;;;;;;;7383278;19;20006;-77
2023/04/23 09:40:03;;;;;;;4.30;2.50;;;;;;;;;;7373551;19;20038;-77
2023/04/23 09:42:31;;;;;;;5.45;2.35;;;;;;;;;;7376952;19;20019;-77
2023/04/23 09:44:59;;;;;;;5.32;2.30;;;;;;;;;;7378037;19;20086;-77
2023/04/23 09:47:54;;;;;;;5.22;2.40;;;;;;;;;;7367057;19;20037;-75
2023/04/23 09:50:32;;;;;;;4.38;2.22;;;;;;;;;;7371710;19;20508;-77
2023/04/23 09:52:58;;;;;;;4.60;2.50;;;;;;;;;;7371726;19;20531;-75
2023/04/23 09:55:30;;;;;;;5.28;2.35;;;;;;;;;;7391245;19;20002;-74
2023/04/23 09:57:57;;;;;;;5.32;2.20;;;;;;;;;;7366955;19;20022;-75
2023/04/23 10:00:24;;;;;;;5.65;2.35;;;;;;;;;;7368845;19;20010;-75
2023/04/23 10:02:51;;;;;;;2.60;2.00;;;;;;;;;;7368563;19;20054;-75
2023/04/23 10:05:18;;;;;;;4.72;2.30;;;;;;;;;;7366723;19;20026;-75
2023/04/23 10:08:13;;;;;;;3.75;2.40;;;;;;;;;;7390571;19;20019;-75
2023/04/23 10:10:39;;;;;;;5.63;2.63;;;;;;;;;;7372871;19;20042;-73
2023/04/23 10:13:04;;;;;;;4.70;2.20;;;;;;;;;;7401115;19;20006;-74
2023/04/23 10:15:31;;;;;;;4.82;2.28;;;;;;;;;;7374578;19;20014;-75
2023/04/23 10:17:58;;;;;;;4.75;2.35;;;;;;;;;;7374303;19;20024;-74
2023/04/23 10:20:24;;;;;;;6.07;2.70;;;;;;;;;;7377390;19;20021;-74
2023/04/23 10:22:53;;;;;;;4.70;2.30;;;;;;;;;;7373046;19;20821;-74
2023/04/23 10:25:19;;;;;;;5.07;2.60;;;;;;;;;;7393022;19;20013;-74
2023/04/23 10:27:47;;;;;;;5.10;3.10;;;;;;;;;;7368780;19;20014;-74
2023/04/23 10:30:13;;;;;;;6.68;3.45;;;;;;;;;;7373768;19;19995;-76
2023/04/23 10:32:39;;;;;;;7.03;3.28;;;;;;;;;;7371188;19;20002;-75
2023/04/23 10:35:06;;;;;;;7.82;3.55;;;;;;;;;;7373830;19;20023;-75
2023/04/23 10:37:33;;;;;;;6.70;4.05;;;;;;;;;;7393580;19;20032;-74
2023/04/23 10:40:11;;;;;;;5.45;3.47;;;;;;;;;;7373902;19;20018;-73
2023/04/23 10:42:39;;;;;;;6.63;3.42;;;;;;;;;;7370823;19;20010;-74
2023/04/23 10:45:18;;;;;;;6.18;3.40;;;;;;;;;;7375291;19;20060;-73
2023/04/23 10:47:44;;;;;;;6.95;3.53;;;;;;;;;;7372768;19;20009;-74
2023/04/23 10:50:21;;;;;;;5.90;3.67;;;;;;;;;;7368139;19;20787;-74
2023/04/23 10:52:50;;;;;;;9.23;3.90;;;;;;;;;;7367348;19;20014;-73
2023/04/23 10:55:35;;;;;;;5.45;3.72;;;;;;;;;;7398968;19;20014;-74
2023/04/23 10:58:04;;;;;;;6.43;3.78;;;;;;;;;;7369390;19;20018;-74
2023/04/23 11:00:44;;;;;;;6.03;3.60;;;;;;;;;;7373869;19;20023;-74
2023/04/23 11:03:28;;;;;;;6.67;3.90;;;;;;;;;;7372879;19;20014;-74
2023/04/23 11:05:53;;;;;;;6.30;3.78;;;;;;;;;;7370877;19;20007;-74
2023/04/23 11:08:19;;;;;;;6.05;3.50;;;;;;;;;;7371910;19;20010;-74
2023/04/23 11:10:55;;;;;;;6.70;3.83;;;;;;;;;;7372124;19;20049;-74
2023/04/23 11:13:24;;;;;;;6.05;3.78;;;;;;;;;;7390934;19;20369;-75
2023/04/23 11:16:22;;;;;;;7.35;4.25;;;;;;;;;;7365381;19;20042;-74
2023/04/23 11:19:14;;;;;;;5.97;3.70;;;;;;;;;;7366813;19;20498;-75
2023/04/23 11:21:59;;;;;;;7.50;3.42;;;;;;;;;;7367509;19;20460;-74
2023/04/23 11:24:31;;;;;;;5.35;3.75;;;;;;;;;;7370822;19;20015;-74
2023/04/23 11:26:57;;;;;;;5.60;3.67;;;;;;;;;;7369804;19;20089;-74
2023/04/23 11:29:24;;;;;;;9.88;4.10;;;;;;;;;;7371566;19;20006;-74
2023/04/23 11:31:51;;;;;;;4.68;3.20;;;;;;;;;;7374337;19;20088;-75
2023/04/23 11:34:17;;;;;;;5.60;3.30;;;;;;;;;;7399897;19;20014;-74
2023/04/23 11:36:42;;;;;;;6.35;3.15;;;;;;;;;;7374111;19;20011;-74
2023/04/23 11:39:09;;;;;;;8.45;3.00;;;;;;;;;;7372953;19;20010;-74
2023/04/23 11:41:37;;;;;;;5.82;3.10;;;;;;;;;;7369705;19;20014;-75
2023/04/23 11:44:03;;;;;;;4.85;2.97;;;;;;;;;;7370466;19;20011;-76
2023/04/23 11:46:28;;;;;;;5.88;3.38;;;;;;;;;;7389017;19;20013;-74
2023/04/23 11:48:54;;;;;;;4.97;2.83;;;;;;;;;;7368618;19;20484;-75
2023/04/23 11:51:27;;;;;;;5.47;3.28;;;;;;;;;;7367897;19;20445;-75
2023/04/23 11:53:53;;;;;;;7.53;3.10;;;;;;;;;;7366770;19;20390;-74
2023/04/23 11:56:22;;;;;;;5.05;2.70;;;;;;;;;;7367183;19;20038;-74
2023/04/23 11:58:57;;;;;;;4.40;2.60;;;;;;;;;;7367228;19;20354;-75
2023/04/23 12:01:22;;;;;;;4.93;3.35;;;;;;;;;;7388578;19;20041;-76
2023/04/23 12:03:48;;;;;;;4.97;2.92;;;;;;;;;;7375608;19;20039;-74
2023/04/23 12:06:16;;;;;;;3.85;2.55;;;;;;;;;;7379789;19;20033;-73
2023/04/23 12:08:45;;;;;;;3.83;2.35;;;;;;;;;;7368046;19;20010;-73
2023/04/23 12:11:11;;;;;;;6.30;2.70;;;;;;;;;;7368111;19;20394;-74
2023/04/23 12:13:39;;;;;;;5.35;2.38;;;;;;;;;;7371767;19;20029;-75
2023/04/23 12:16:04;;;;;;;5.10;2.53;;;;;;;;;;7391281;19;20007;-75
2023/04/23 12:18:36;;;;;;;5.35;2.40;;;;;;;;;;7368910;19;20017;-73
2023/04/23 12:21:09;;;;;;;4.32;2.55;;;;;;;;;;7369490;19;20003;-73
2023/04/23 12:23:36;;;;;;;3.75;2.22;;;;;;;;;;7367074;19;20010;-73
2023/04/23 12:26:02;;;;;;;3.90;2.30;;;;;;;;;;7367527;19;20355;-74
2023/04/23 12:28:28;;;;;;;4.30;2.42;;;;;;;;;;7390205;19;20006;-73
2023/04/23 12:30:58;;;;;;;4.63;2.30;;;;;;;;;;7368337;19;20551;-74
2023/04/23 12:33:27;;;;;;;;;;;;;;;;;;7388286;19;20003;-75
2023/04/23 12:35:52;;;;;;;4.80;2.45;;;;;;;;;;7369739;19;19918;-76
2023/04/23 12:38:26;;;;;;;4.38;2.25;;;;;;;;;;7377761;19;20725;-75
2023/04/23 12:40:52;;;;;;;5.10;2.10;;;;;;;;;;7378214;19;19999;-75
2023/04/23 12:43:18;;;;;;;4.13;1.98;;;;;;;;;;7399152;19;19987;-75
2023/04/23 12:45:44;;;;;;;6.45;2.10;;;;;;;;;;7369021;19;20082;-75
2023/04/23 12:48:09;;;;;;;4.80;2.50;;;;;;;;;;7371261;19;20006;-75
2023/04/23 12:50:36;;;;;;;3.60;2.28;;;;;;;;;;7374714;19;20006;-75
2023/04/23 12:53:01;;;;;;;3.50;2.00;;;;;;;;;;7373427;19;20481;-75
2023/04/23 12:55:27;;;;;;;3.97;2.20;;;;;;;;;;7393210;19;20096;-75
2023/04/23 12:57:52;;;;;;;4.50;2.05;;;;;;;;;;7371131;19;20003;-75
2023/04/23 13:00:17;;;;;;;3.65;2.10;;;;;;;;;;7371347;19;20015;-75
2023/04/23 13:02:43;;;;;;;4.88;2.10;;;;;;;;;;7374074;19;20032;-75
2023/04/23 13:05:08;;;;;;;2.95;1.90;;;;;;;;;;7374937;19;20003;-75
2023/04/23 13:07:34;;;;;;;3.25;1.85;;;;;;;;;;7391299;19;20422;-75
2023/04/23 13:09:59;;;;;;;3.20;1.83;;;;;;;;;;7373016;19;20018;-75
2023/04/23 13:12:25;;;;;;;4.55;1.75;;;;;;;;;;7372508;19;20414;-75
2023/04/23 13:14:50;;;;;;;2.85;1.80;;;;;;;;;;7371312;19;20003;-75
2023/04/23 13:17:16;;;;;;;2.97;2.00;;;;;;;;;;7372841;19;20011;-76
2023/04/23 13:19:41;;;;;;;10.07;1.83;;;;;;;;;;7371367;19;20029;-75
2023/04/23 13:22:06;;;;;;;4.43;1.80;;;;;;;;;;7396112;19;19998;-75
2023/04/23 13:24:32;;;;;;;3.35;1.70;;;;;;;;;;7373115;19;20006;-75
2023/04/23 13:26:57;;;;;;;4.10;2.03;;;;;;;;;;7370515;19;20449;-76
2023/04/23 13:29:23;;;;;;;2.78;1.80;;;;;;;;;;7371485;19;20002;-75
2023/04/23 13:31:48;;;;;;;5.00;2.15;;;;;;;;;;7370346;19;20000;-75
2023/04/23 13:34:14;;;;;;;2.88;1.70;;;;;;;;;;7393140;19;19995;-74
2023/04/23 13:36:42;;;;;;;4.63;2.00;;;;;;;;;;7369462;19;20006;-76
2023/04/23 13:39:08;;;;;;;4.35;1.80;;;;;;;;;;7366020;19;20003;-76
2023/04/23 13:41:34;;;;;;;3.60;1.90;;;;;;;;;;7368361;19;19995;-75
2023/04/23 13:43:59;;;;;;;2.42;1.52;;;;;;;;;;7370019;19;20027;-75
2023/04/23 13:46:25;;;;;;;3.03;1.58;;;;;;;;;;7393312;19;20006;-76
2023/04/23 13:48:52;;;;;;;2.65;1.73;;;;;;;;;;7377280;19;19998;-75
2023/04/23 13:51:17;;;;;;;2.60;1.65;;;;;;;;;;7375636;19;20059;-76
2023/04/23 13:53:43;;;;;;;3.78;1.70;;;;;;;;;;7372522;19;20585;-76
2023/04/23 13:56:08;;;;;;;4.75;1.83;;;;;;;;;;7371680;19;20428;-76
2023/04/23 13:58:34;;;;;;;3.35;1.90;;;;;;;;;;7392376;19;20000;-75
2023/04/23 14:00:59;;;;;;;5.95;1.95;;;;;;;;;;7371231;19;20034;-76
2023/04/23 14:03:24;;;;;;;3.22;1.70;;;;;;;;;;7371168;19;20018;-76
2023/04/23 14:05:50;;;;;;;1.92;1.60;;;;;;;;;;7371529;19;20003;-76
2023/04/23 14:08:15;;;;;;;2.15;1.50;;;;;;;;;;7371523;19;20489;-75
2023/04/23 14:10:41;;;;;;;2.50;1.60;;;;;;;;;;7372343;19;20006;-75
2023/04/23 14:13:06;;;;;;;3.22;1.80;;;;;;;;;;7392867;19;19995;-75
2023/04/23 14:15:32;;;;;;;2.75;1.50;;;;;;;;;;7368852;19;19998;-75
2023/04/23 14:17:58;;;;;;;2.47;1.60;;;;;;;;;;7368415;19;20543;-75
2023/04/23 14:20:24;;;;;;;7.68;2.28;;;;;;;;;;7367941;19;20017;-76
2023/04/23 14:22:54;;;;;;;3.72;1.77;;;;;;;;;;7369112;19;19999;-75
2023/04/23 14:25:28;;;;;;;3.70;1.92;;;;;;;;;;7389517;19;19999;-75
2023/04/23 14:27:55;;;;;;;3.53;1.98;;;;;;;;;;7368732;19;20013;-76
2023/04/23 14:30:20;;;;;;;2.60;1.70;;;;;;;;;;7367066;19;20391;-75
2023/04/23 14:32:46;;;;;;;2.80;1.60;;;;;;;;;;7370936;19;20036;-77